Rhourd El Adra — 7TBS — position and weather

sailwx.info

Track history (hours):
 
Tides and Currents Weather Stations Pressure Air Temp Water Temp Dewpoint Dewpoint Depression Visibility Wind Speed Wind Dir Waves Ship Positions

Rhourd El Adra

Last reported at 2016-May-03 06:30 UTC. Time now 2016-May-04 06:03 UTC.
Position N 31°48' E 031°33'.

Length 156 m; draft 8.9 m.

Type: Ship (hazmat cat C). MMSI: 605026210.

Date/timePositionNaut miles runAvg speedWind from/ knotsBaromVisibWave heightAir tempDewpointWater temp
2016-May-03 06:30N 31°48' E 031°33'1415.0
2016-May-03 05:33N 31°52' E 031°17'3515.0
2016-May-03 03:15N 32°03' E 030°38'1014.8
2016-May-03 02:33N 32°06' E 030°27'1914.6
2016-May-03 01:15N 32°11' E 030°05'66514.8
2016-May-01 04:20N 35°29' E 017°20'3014.6
2016-May-01 02:18N 35°38' E 016°45'1114.6
2016-May-01 01:33N 35°41' E 016°32'1514.5
2016-May-01 00:33N 35°45' E 016°15'1414.4
2016-Apr-30 23:33N 35°48' E 015°58'1714.7
2016-Apr-30 22:21N 35°53' E 015°37'1214.7
2016-Apr-30 21:33N 35°58' E 015°24'1514.5
2016-Apr-30 20:32N 36°03' E 015°06'1414.6
2016-Apr-30 19:33N 36°08' E 014°50'1414.6
2016-Apr-30 18:33N 36°13' E 014°33'1514.7
2016-Apr-30 17:33N 36°19' E 014°16'1514.7
2016-Apr-30 16:33N 36°24' E 013°59'1514.5
2016-Apr-30 15:33N 36°30' E 013°43'1514.6
2016-Apr-30 14:33N 36°35' E 013°26'1515.0
2016-Apr-30 13:33N 36°41' E 013°09'  
2016-Apr-27 00:10N 35°58' W 000°07'0 0.2
2016-Apr-26 22:33N 35°58' W 000°08'0 0.3
2016-Apr-26 21:06N 35°57' W 000°07'0 0.2
2016-Apr-26 19:33N 35°58' W 000°07'5 5.1
2016-Apr-26 18:33N 36°02' W 000°11'1211.9
2016-Apr-26 17:32N 36°14' W 000°08'1913.7
2016-Apr-26 16:08N 36°32' W 000°03'814.1
2016-Apr-26 15:33N 36°40' W 000°00'1414.3
2016-Apr-26 14:33N 36°54' E 000°03'1614.3
2016-Apr-26 13:28N 37°10' E 000°07'1313.8
2016-Apr-26 12:33N 37°22' E 000°11'1414.2
2016-Apr-26 11:33N 37°36' E 000°14'3014.5
2016-Apr-26 09:28N 38°06' E 000°22'3415.5
2016-Apr-26 07:17N 38°38' E 000°31'7715.2
2016-Apr-26 02:14N 39°53' E 000°52'1014.7
2016-Apr-26 01:33N 40°03' E 000°55'1514.9
2016-Apr-26 00:33N 40°18' E 000°60'4414.7
2016-Apr-25 21:33N 41°01' E 001°12'19 0.7
2016-Apr-24 19:17N 40°42' E 001°07'1013.7
2016-Apr-24 18:33N 40°32' E 001°04'1414.3
2016-Apr-24 17:33N 40°18' E 000°60'1514.8
2016-Apr-24 16:33N 40°04' E 000°56'  
Track history (hours):
 
Tides and Currents Weather Stations Pressure Air Temp Water Temp Dewpoint Dewpoint Depression Visibility Wind Speed Wind Dir Waves Ship Positions

Rhourd El Adra

Last reported at 2016-May-03 06:30 UTC. Time now 2016-May-04 06:03 UTC.
Position N 31°48' E 031°33'.

Length 156 m; draft 8.9 m.

Type: Ship (hazmat cat C). MMSI: 605026210.

Date/timePositionNaut miles runAvg speedWind from/ knotsBaromVisibWave heightAir tempDewpointWater temp
2016-May-03 06:30N 31°48' E 031°33'1415.0
2016-May-03 05:33N 31°52' E 031°17'3515.0
2016-May-03 03:15N 32°03' E 030°38'1014.8
2016-May-03 02:33N 32°06' E 030°27'1914.6
2016-May-03 01:15N 32°11' E 030°05'66514.8
2016-May-01 04:20N 35°29' E 017°20'3014.6
2016-May-01 02:18N 35°38' E 016°45'1114.6
2016-May-01 01:33N 35°41' E 016°32'1514.5
2016-May-01 00:33N 35°45' E 016°15'1414.4
2016-Apr-30 23:33N 35°48' E 015°58'1714.7
2016-Apr-30 22:21N 35°53' E 015°37'1214.7
2016-Apr-30 21:33N 35°58' E 015°24'1514.5
2016-Apr-30 20:32N 36°03' E 015°06'1414.6
2016-Apr-30 19:33N 36°08' E 014°50'1414.6
2016-Apr-30 18:33N 36°13' E 014°33'1514.7
2016-Apr-30 17:33N 36°19' E 014°16'1514.7
2016-Apr-30 16:33N 36°24' E 013°59'1514.5
2016-Apr-30 15:33N 36°30' E 013°43'1514.6
2016-Apr-30 14:33N 36°35' E 013°26'1515.0
2016-Apr-30 13:33N 36°41' E 013°09'  
2016-Apr-27 00:10N 35°58' W 000°07'0 0.2
2016-Apr-26 22:33N 35°58' W 000°08'0 0.3
2016-Apr-26 21:06N 35°57' W 000°07'0 0.2
2016-Apr-26 19:33N 35°58' W 000°07'5 5.1
2016-Apr-26 18:33N 36°02' W 000°11'1211.9
2016-Apr-26 17:32N 36°14' W 000°08'1913.7
2016-Apr-26 16:08N 36°32' W 000°03'814.1
2016-Apr-26 15:33N 36°40' W 000°00'1414.3
2016-Apr-26 14:33N 36°54' E 000°03'1614.3
2016-Apr-26 13:28N 37°10' E 000°07'1313.8
2016-Apr-26 12:33N 37°22' E 000°11'1414.2
2016-Apr-26 11:33N 37°36' E 000°14'3014.5
2016-Apr-26 09:28N 38°06' E 000°22'3415.5
2016-Apr-26 07:17N 38°38' E 000°31'7715.2
2016-Apr-26 02:14N 39°53' E 000°52'1014.7
2016-Apr-26 01:33N 40°03' E 000°55'1514.9
2016-Apr-26 00:33N 40°18' E 000°60'4414.7
2016-Apr-25 21:33N 41°01' E 001°12'19 0.7
2016-Apr-24 19:17N 40°42' E 001°07'1013.7
2016-Apr-24 18:33N 40°32' E 001°04'1414.3
2016-Apr-24 17:33N 40°18' E 000°60'1514.8
2016-Apr-24 16:33N 40°04' E 000°56'  

Dump ship's entire track history